sensor_id;sensor_type;location;lat;lon;timestamp;temperature;humidity
63371;DHT22;49504;48.336;14.472;2022-09-03T00:01:31;27.00;45.80
63371;DHT22;49504;48.336;14.472;2022-09-03T00:06:37;27.00;45.60
63371;DHT22;49504;48.336;14.472;2022-09-03T00:11:48;27.00;45.80
63371;DHT22;49504;48.336;14.472;2022-09-03T00:16:56;27.00;45.70
63371;DHT22;49504;48.336;14.472;2022-09-03T00:22:03;27.00;45.50
63371;DHT22;49504;48.336;14.472;2022-09-03T00:27:13;27.00;45.60
63371;DHT22;49504;48.336;14.472;2022-09-03T00:32:20;27.00;45.70
63371;DHT22;49504;48.336;14.472;2022-09-03T00:37:26;27.00;45.80
63371;DHT22;49504;48.336;14.472;2022-09-03T00:42:38;27.00;45.70
63371;DHT22;49504;48.336;14.472;2022-09-03T00:47:57;27.00;45.80
63371;DHT22;49504;48.336;14.472;2022-09-03T00:53:10;27.00;45.90
63371;DHT22;49504;48.336;14.472;2022-09-03T00:58:29;27.00;45.80
63371;DHT22;49504;48.336;14.472;2022-09-03T01:07:51;27.00;45.50
63371;DHT22;49504;48.336;14.472;2022-09-03T01:12:58;27.00;46.10
63371;DHT22;49504;48.336;14.472;2022-09-03T01:18:14;27.00;46.00
63371;DHT22;49504;48.336;14.472;2022-09-03T01:26:59;26.90;45.40
63371;DHT22;49504;48.336;14.472;2022-09-03T01:32:10;27.00;45.90
63371;DHT22;49504;48.336;14.472;2022-09-03T01:37:18;26.90;45.90
63371;DHT22;49504;48.336;14.472;2022-09-03T01:42:35;26.90;46.00
63371;DHT22;49504;48.336;14.472;2022-09-03T01:47:55;26.90;46.00
63371;DHT22;49504;48.336;14.472;2022-09-03T01:53:12;26.90;46.00
63371;DHT22;49504;48.336;14.472;2022-09-03T01:58:38;26.90;45.90
63371;DHT22;49504;48.336;14.472;2022-09-03T02:03:43;26.90;46.00
63371;DHT22;49504;48.336;14.472;2022-09-03T02:11:38;26.90;45.40
63371;DHT22;49504;48.336;14.472;2022-09-03T02:16:39;26.90;45.90
63371;DHT22;49504;48.336;14.472;2022-09-03T02:21:45;26.90;45.90
63371;DHT22;49504;48.336;14.472;2022-09-03T02:26:50;26.90;45.90
63371;DHT22;49504;48.336;14.472;2022-09-03T02:31:52;26.90;46.00
63371;DHT22;49504;48.336;14.472;2022-09-03T02:36:53;26.90;46.00
63371;DHT22;49504;48.336;14.472;2022-09-03T02:42:53;26.90;45.40
63371;DHT22;49504;48.336;14.472;2022-09-03T02:47:56;26.90;46.00
63371;DHT22;49504;48.336;14.472;2022-09-03T02:52:59;26.90;46.00
63371;DHT22;49504;48.336;14.472;2022-09-03T02:58:01;26.90;45.80
63371;DHT22;49504;48.336;14.472;2022-09-03T03:03:03;26.90;45.70
63371;DHT22;49504;48.336;14.472;2022-09-03T03:08:04;26.90;46.40
63371;DHT22;49504;48.336;14.472;2022-09-03T03:13:07;26.90;45.60
63371;DHT22;49504;48.336;14.472;2022-09-03T03:18:08;26.90;45.60
63371;DHT22;49504;48.336;14.472;2022-09-03T03:23:09;26.90;45.70
63371;DHT22;49504;48.336;14.472;2022-09-03T03:28:12;26.90;45.70
63371;DHT22;49504;48.336;14.472;2022-09-03T03:33:13;26.90;45.80
63371;DHT22;49504;48.336;14.472;2022-09-03T03:38:15;26.80;45.60
63371;DHT22;49504;48.336;14.472;2022-09-03T03:43:17;26.90;45.60
63371;DHT22;49504;48.336;14.472;2022-09-03T03:48:18;26.90;45.80
63371;DHT22;49504;48.336;14.472;2022-09-03T03:57:24;26.90;45.30
63371;DHT22;49504;48.336;14.472;2022-09-03T04:02:25;26.90;45.80
63371;DHT22;49504;48.336;14.472;2022-09-03T04:07:26;26.90;45.80
63371;DHT22;49504;48.336;14.472;2022-09-03T04:12:28;26.90;45.50
63371;DHT22;49504;48.336;14.472;2022-09-03T04:17:29;26.90;45.40
63371;DHT22;49504;48.336;14.472;2022-09-03T04:22:30;26.90;45.40
63371;DHT22;49504;48.336;14.472;2022-09-03T04:27:33;26.80;45.60
63371;DHT22;49504;48.336;14.472;2022-09-03T04:39:44;26.90;45.10
63371;DHT22;49504;48.336;14.472;2022-09-03T04:44:45;26.90;45.30
63371;DHT22;49504;48.336;14.472;2022-09-03T04:49:46;26.90;45.30
63371;DHT22;49504;48.336;14.472;2022-09-03T04:54:49;26.90;45.90
63371;DHT22;49504;48.336;14.472;2022-09-03T04:59:51;26.90;45.40
63371;DHT22;49504;48.336;14.472;2022-09-03T05:04:52;26.90;45.60
63371;DHT22;49504;48.336;14.472;2022-09-03T05:09:55;26.90;45.70
63371;DHT22;49504;48.336;14.472;2022-09-03T05:14:57;26.90;45.40
63371;DHT22;49504;48.336;14.472;2022-09-03T05:19:58;26.90;45.90
63371;DHT22;49504;48.336;14.472;2022-09-03T05:25:01;26.90;46.20
63371;DHT22;49504;48.336;14.472;2022-09-03T05:30:02;26.90;45.80
63371;DHT22;49504;48.336;14.472;2022-09-03T05:35:05;26.90;45.50
63371;DHT22;49504;48.336;14.472;2022-09-03T05:40:10;26.90;45.40
63371;DHT22;49504;48.336;14.472;2022-09-03T05:45:11;26.90;45.30
63371;DHT22;49504;48.336;14.472;2022-09-03T05:50:12;26.90;45.60
63371;DHT22;49504;48.336;14.472;2022-09-03T05:55:15;26.90;45.60
63371;DHT22;49504;48.336;14.472;2022-09-03T06:00:16;26.90;45.70
63371;DHT22;49504;48.336;14.472;2022-09-03T06:05:18;26.90;45.90
63371;DHT22;49504;48.336;14.472;2022-09-03T06:10:21;26.90;46.30
63371;DHT22;49504;48.336;14.472;2022-09-03T06:15:22;26.90;46.10
63371;DHT22;49504;48.336;14.472;2022-09-03T06:20:23;26.90;46.50
63371;DHT22;49504;48.336;14.472;2022-09-03T06:25:25;26.90;46.70
63371;DHT22;49504;48.336;14.472;2022-09-03T06:30:27;26.90;46.30
63371;DHT22;49504;48.336;14.472;2022-09-03T06:35:28;26.90;46.50
63371;DHT22;49504;48.336;14.472;2022-09-03T06:40:30;26.90;46.90
63371;DHT22;49504;48.336;14.472;2022-09-03T06:45:31;26.90;46.80
63371;DHT22;49504;48.336;14.472;2022-09-03T06:50:32;26.90;46.90
63371;DHT22;49504;48.336;14.472;2022-09-03T06:55:35;26.90;46.90
63371;DHT22;49504;48.336;14.472;2022-09-03T07:00:36;27.00;46.80
63371;DHT22;49504;48.336;14.472;2022-09-03T07:05:37;27.00;46.20
63371;DHT22;49504;48.336;14.472;2022-09-03T07:10:39;26.90;42.60
63371;DHT22;49504;48.336;14.472;2022-09-03T07:15:40;26.90;44.10
63371;DHT22;49504;48.336;14.472;2022-09-03T07:20:41;26.90;44.40
63371;DHT22;49504;48.336;14.472;2022-09-03T07:25:52;26.90;44.10
63371;DHT22;49504;48.336;14.472;2022-09-03T07:30:59;26.80;44.10
63371;DHT22;49504;48.336;14.472;2022-09-03T07:36:02;26.80;43.80
63371;DHT22;49504;48.336;14.472;2022-09-03T07:41:07;26.80;43.60
63371;DHT22;49504;48.336;14.472;2022-09-03T07:46:09;26.80;43.40
63371;DHT22;49504;48.336;14.472;2022-09-03T07:51:10;26.80;43.50
63371;DHT22;49504;48.336;14.472;2022-09-03T07:56:13;26.80;43.10
63371;DHT22;49504;48.336;14.472;2022-09-03T08:01:16;26.80;43.60
63371;DHT22;49504;48.336;14.472;2022-09-03T08:06:19;26.80;43.80
63371;DHT22;49504;48.336;14.472;2022-09-03T08:11:25;26.80;43.70
63371;DHT22;49504;48.336;14.472;2022-09-03T08:16:28;26.80;43.70
63371;DHT22;49504;48.336;14.472;2022-09-03T08:21:30;26.70;44.20
63371;DHT22;49504;48.336;14.472;2022-09-03T08:26:34;26.80;44.80
63371;DHT22;49504;48.336;14.472;2022-09-03T08:31:37;26.80;44.90
63371;DHT22;49504;48.336;14.472;2022-09-03T08:36:38;26.80;45.10
63371;DHT22;49504;48.336;14.472;2022-09-03T08:41:53;26.70;45.60
63371;DHT22;49504;48.336;14.472;2022-09-03T08:47:08;26.80;45.80
63371;DHT22;49504;48.336;14.472;2022-09-03T08:52:21;26.80;45.70
63371;DHT22;49504;48.336;14.472;2022-09-03T08:57:27;26.80;45.80
63371;DHT22;49504;48.336;14.472;2022-09-03T09:02:40;26.80;46.20
63371;DHT22;49504;48.336;14.472;2022-09-03T09:07:52;26.80;45.80
63371;DHT22;49504;48.336;14.472;2022-09-03T09:13:07;26.80;45.20
63371;DHT22;49504;48.336;14.472;2022-09-03T09:18:19;26.80;44.70
63371;DHT22;49504;48.336;14.472;2022-09-03T09:23:27;26.80;43.70
63371;DHT22;49504;48.336;14.472;2022-09-03T09:28:33;26.80;42.90
63371;DHT22;49504;48.336;14.472;2022-09-03T09:33:35;26.80;44.00
63371;DHT22;49504;48.336;14.472;2022-09-03T09:38:38;26.80;44.40
63371;DHT22;49504;48.336;14.472;2022-09-03T09:43:41;26.80;44.90
63371;DHT22;49504;48.336;14.472;2022-09-03T09:48:48;26.80;45.30
63371;DHT22;49504;48.336;14.472;2022-09-03T09:54:00;26.80;45.60
63371;DHT22;49504;48.336;14.472;2022-09-03T09:59:06;26.80;45.70
63371;DHT22;49504;48.336;14.472;2022-09-03T10:04:10;26.90;46.20
63371;DHT22;49504;48.336;14.472;2022-09-03T10:09:13;26.90;46.30
63371;DHT22;49504;48.336;14.472;2022-09-03T10:14:20;26.90;46.80
63371;DHT22;49504;48.336;14.472;2022-09-03T10:19:28;26.90;46.70
63371;DHT22;49504;48.336;14.472;2022-09-03T10:24:43;27.00;47.00
63371;DHT22;49504;48.336;14.472;2022-09-03T10:29:49;27.00;47.10
63371;DHT22;49504;48.336;14.472;2022-09-03T10:34:56;27.00;47.50
63371;DHT22;49504;48.336;14.472;2022-09-03T10:40:11;27.00;47.30
63371;DHT22;49504;48.336;14.472;2022-09-03T10:45:26;26.90;47.30
63371;DHT22;49504;48.336;14.472;2022-09-03T10:50:42;27.00;47.40
63371;DHT22;49504;48.336;14.472;2022-09-03T10:55:49;27.00;47.40
63371;DHT22;49504;48.336;14.472;2022-09-03T11:01:01;27.00;47.80
63371;DHT22;49504;48.336;14.472;2022-09-03T11:06:08;27.00;47.70
63371;DHT22;49504;48.336;14.472;2022-09-03T11:11:15;27.00;47.80
63371;DHT22;49504;48.336;14.472;2022-09-03T11:16:23;27.00;47.80
63371;DHT22;49504;48.336;14.472;2022-09-03T11:21:32;27.00;47.70
63371;DHT22;49504;48.336;14.472;2022-09-03T11:26:35;27.10;47.90
63371;DHT22;49504;48.336;14.472;2022-09-03T11:31:51;27.00;47.90
63371;DHT22;49504;48.336;14.472;2022-09-03T11:37:03;27.10;47.90
63371;DHT22;49504;48.336;14.472;2022-09-03T11:42:12;27.10;47.70
63371;DHT22;49504;48.336;14.472;2022-09-03T11:47:38;27.10;48.10
63371;DHT22;49504;48.336;14.472;2022-09-03T11:52:40;27.10;48.10
63371;DHT22;49504;48.336;14.472;2022-09-03T11:57:41;27.10;48.40
63371;DHT22;49504;48.336;14.472;2022-09-03T12:02:46;27.10;48.50
63371;DHT22;49504;48.336;14.472;2022-09-03T12:08:31;27.10;48.60
63371;DHT22;49504;48.336;14.472;2022-09-03T12:13:49;27.10;48.50
63371;DHT22;49504;48.336;14.472;2022-09-03T12:21:54;27.10;47.90
63371;DHT22;49504;48.336;14.472;2022-09-03T12:26:57;27.10;48.90
63371;DHT22;49504;48.336;14.472;2022-09-03T12:32:06;27.20;49.00
63371;DHT22;49504;48.336;14.472;2022-09-03T12:37:19;27.10;48.80
63371;DHT22;49504;48.336;14.472;2022-09-03T12:42:26;27.20;48.70
63371;DHT22;49504;48.336;14.472;2022-09-03T12:47:28;27.20;48.70
63371;DHT22;49504;48.336;14.472;2022-09-03T12:52:33;27.20;48.90
63371;DHT22;49504;48.336;14.472;2022-09-03T12:57:40;27.20;48.60
63371;DHT22;49504;48.336;14.472;2022-09-03T13:02:48;27.20;48.60
63371;DHT22;49504;48.336;14.472;2022-09-03T13:07:56;27.20;48.70
63371;DHT22;49504;48.336;14.472;2022-09-03T13:13:00;27.20;48.70
63371;DHT22;49504;48.336;14.472;2022-09-03T13:18:24;27.20;48.80
63371;DHT22;49504;48.336;14.472;2022-09-03T13:23:41;27.20;48.70
63371;DHT22;49504;48.336;14.472;2022-09-03T13:29:00;27.20;48.80
63371;DHT22;49504;48.336;14.472;2022-09-03T13:34:17;27.20;48.90
63371;DHT22;49504;48.336;14.472;2022-09-03T13:39:28;27.10;48.80
63371;DHT22;49504;48.336;14.472;2022-09-03T13:44:39;27.20;48.90
63371;DHT22;49504;48.336;14.472;2022-09-03T13:49:46;27.20;48.80
63371;DHT22;49504;48.336;14.472;2022-09-03T13:54:57;27.20;48.80
63371;DHT22;49504;48.336;14.472;2022-09-03T14:00:04;27.20;48.80
63371;DHT22;49504;48.336;14.472;2022-09-03T14:05:09;27.20;48.70
63371;DHT22;49504;48.336;14.472;2022-09-03T14:10:23;27.20;48.30
63371;DHT22;49504;48.336;14.472;2022-09-03T14:15:31;27.20;48.00
63371;DHT22;49504;48.336;14.472;2022-09-03T14:20:43;27.20;47.30
63371;DHT22;49504;48.336;14.472;2022-09-03T14:25:52;27.20;47.80
63371;DHT22;49504;48.336;14.472;2022-09-03T14:31:00;27.20;47.80
63371;DHT22;49504;48.336;14.472;2022-09-03T14:36:15;27.20;47.50
63371;DHT22;49504;48.336;14.472;2022-09-03T14:47:38;27.10;47.20
63371;DHT22;49504;48.336;14.472;2022-09-03T14:53:16;27.10;47.20
63371;DHT22;49504;48.336;14.472;2022-09-03T14:58:33;27.10;47.40
63371;DHT22;49504;48.336;14.472;2022-09-03T15:06:39;27.10;47.00
63371;DHT22;49504;48.336;14.472;2022-09-03T15:11:53;27.10;47.40
63371;DHT22;49504;48.336;14.472;2022-09-03T15:16:59;27.10;47.00
63371;DHT22;49504;48.336;14.472;2022-09-03T15:22:12;27.10;47.10
63371;DHT22;49504;48.336;14.472;2022-09-03T15:27:44;27.10;47.00
63371;DHT22;49504;48.336;14.472;2022-09-03T15:33:09;27.10;46.90
63371;DHT22;49504;48.336;14.472;2022-09-03T15:38:20;27.10;46.70
63371;DHT22;49504;48.336;14.472;2022-09-03T15:43:29;27.10;46.70
63371;DHT22;49504;48.336;14.472;2022-09-03T15:48:36;27.10;46.80
63371;DHT22;49504;48.336;14.472;2022-09-03T15:53:50;27.00;46.70
63371;DHT22;49504;48.336;14.472;2022-09-03T15:58:59;27.00;46.60
63371;DHT22;49504;48.336;14.472;2022-09-03T16:04:55;27.10;46.10
63371;DHT22;49504;48.336;14.472;2022-09-03T16:10:07;27.00;46.50
63371;DHT22;49504;48.336;14.472;2022-09-03T16:15:14;27.00;46.30
63371;DHT22;49504;48.336;14.472;2022-09-03T16:20:21;27.10;46.10
63371;DHT22;49504;48.336;14.472;2022-09-03T16:25:29;27.10;46.50
63371;DHT22;49504;48.336;14.472;2022-09-03T16:30:42;27.00;46.40
63371;DHT22;49504;48.336;14.472;2022-09-03T16:35:58;27.00;46.40
63371;DHT22;49504;48.336;14.472;2022-09-03T16:41:11;27.00;46.50
63371;DHT22;49504;48.336;14.472;2022-09-03T16:46:24;27.00;46.60
63371;DHT22;49504;48.336;14.472;2022-09-03T16:51:38;27.00;46.70
63371;DHT22;49504;48.336;14.472;2022-09-03T16:56:53;27.00;46.80
63371;DHT22;49504;48.336;14.472;2022-09-03T17:02:09;27.00;46.80
63371;DHT22;49504;48.336;14.472;2022-09-03T17:07:40;27.00;46.90
63371;DHT22;49504;48.336;14.472;2022-09-03T17:12:57;27.00;47.00
63371;DHT22;49504;48.336;14.472;2022-09-03T17:24:00;27.00;47.10
63371;DHT22;49504;48.336;14.472;2022-09-03T17:29:25;27.00;47.10
63371;DHT22;49504;48.336;14.472;2022-09-03T17:35:18;27.00;46.60
63371;DHT22;49504;48.336;14.472;2022-09-03T17:45:02;27.00;46.70
63371;DHT22;49504;48.336;14.472;2022-09-03T17:53:59;27.00;46.70
63371;DHT22;49504;48.336;14.472;2022-09-03T17:59:09;27.00;47.40
63371;DHT22;49504;48.336;14.472;2022-09-03T18:04:24;27.00;47.40
63371;DHT22;49504;48.336;14.472;2022-09-03T18:09:36;27.00;47.50
63371;DHT22;49504;48.336;14.472;2022-09-03T18:14:48;27.00;47.50
63371;DHT22;49504;48.336;14.472;2022-09-03T18:22:39;27.00;47.00
63371;DHT22;49504;48.336;14.472;2022-09-03T18:27:46;27.00;47.60
63371;DHT22;49504;48.336;14.472;2022-09-03T18:32:50;27.00;47.70
63371;DHT22;49504;48.336;14.472;2022-09-03T18:37:53;27.00;47.70
63371;DHT22;49504;48.336;14.472;2022-09-03T18:43:01;27.00;47.80
63371;DHT22;49504;48.336;14.472;2022-09-03T18:48:11;27.00;47.80
63371;DHT22;49504;48.336;14.472;2022-09-03T18:56:14;27.00;47.20
63371;DHT22;49504;48.336;14.472;2022-09-03T19:01:29;27.00;47.80
63371;DHT22;49504;48.336;14.472;2022-09-03T19:06:38;27.00;47.90
63371;DHT22;49504;48.336;14.472;2022-09-03T19:15:48;27.00;47.30
63371;DHT22;49504;48.336;14.472;2022-09-03T19:23:06;27.00;47.30
63371;DHT22;49504;48.336;14.472;2022-09-03T19:28:12;27.00;48.10
63371;DHT22;49504;48.336;14.472;2022-09-03T19:33:20;26.90;48.10
63371;DHT22;49504;48.336;14.472;2022-09-03T19:38:39;26.90;48.00
63371;DHT22;49504;48.336;14.472;2022-09-03T19:43:56;27.00;48.10
63371;DHT22;49504;48.336;14.472;2022-09-03T19:49:08;27.00;48.20
63371;DHT22;49504;48.336;14.472;2022-09-03T19:54:19;27.00;48.60
63371;DHT22;49504;48.336;14.472;2022-09-03T19:59:25;27.00;48.30
63371;DHT22;49504;48.336;14.472;2022-09-03T20:04:31;27.00;48.40
63371;DHT22;49504;48.336;14.472;2022-09-03T20:09:40;27.00;48.90
63371;DHT22;49504;48.336;14.472;2022-09-03T20:14:42;27.00;48.70
63371;DHT22;49504;48.336;14.472;2022-09-03T20:19:53;27.00;49.00
63371;DHT22;49504;48.336;14.472;2022-09-03T20:25:23;27.00;48.90
63371;DHT22;49504;48.336;14.472;2022-09-03T20:30:35;27.00;48.90
63371;DHT22;49504;48.336;14.472;2022-09-03T20:36:03;27.00;48.30
63371;DHT22;49504;48.336;14.472;2022-09-03T20:41:14;27.10;49.10
63371;DHT22;49504;48.336;14.472;2022-09-03T20:46:27;27.00;49.10
63371;DHT22;49504;48.336;14.472;2022-09-03T20:51:44;27.00;49.20
63371;DHT22;49504;48.336;14.472;2022-09-03T20:57:10;27.00;49.30
63371;DHT22;49504;48.336;14.472;2022-09-03T21:03:31;27.00;48.60
63371;DHT22;49504;48.336;14.472;2022-09-03T21:08:47;27.00;49.40
63371;DHT22;49504;48.336;14.472;2022-09-03T21:14:00;27.00;49.30
63371;DHT22;49504;48.336;14.472;2022-09-03T21:19:21;27.00;49.20
63371;DHT22;49504;48.336;14.472;2022-09-03T21:24:31;27.00;49.30
63371;DHT22;49504;48.336;14.472;2022-09-03T21:29:39;27.00;49.30
63371;DHT22;49504;48.336;14.472;2022-09-03T21:34:49;27.00;49.40
63371;DHT22;49504;48.336;14.472;2022-09-03T21:39:56;27.00;49.40
63371;DHT22;49504;48.336;14.472;2022-09-03T21:45:01;27.00;49.40
63371;DHT22;49504;48.336;14.472;2022-09-03T21:54:27;27.00;48.70
63371;DHT22;49504;48.336;14.472;2022-09-03T22:05:22;27.00;49.40
63371;DHT22;49504;48.336;14.472;2022-09-03T22:10:27;27.00;49.50
63371;DHT22;49504;48.336;14.472;2022-09-03T22:15:31;27.00;49.50
63371;DHT22;49504;48.336;14.472;2022-09-03T22:20:33;27.00;49.50
63371;DHT22;49504;48.336;14.472;2022-09-03T22:25:41;27.00;49.50
63371;DHT22;49504;48.336;14.472;2022-09-03T22:30:51;27.00;49.50
63371;DHT22;49504;48.336;14.472;2022-09-03T22:36:02;27.00;49.50
63371;DHT22;49504;48.336;14.472;2022-09-03T22:41:18;27.00;49.50
63371;DHT22;49504;48.336;14.472;2022-09-03T22:46:26;27.00;49.50
63371;DHT22;49504;48.336;14.472;2022-09-03T22:51:56;27.00;49.60
63371;DHT22;49504;48.336;14.472;2022-09-03T22:57:05;27.00;49.60
63371;DHT22;49504;48.336;14.472;2022-09-03T23:02:11;27.00;49.60
63371;DHT22;49504;48.336;14.472;2022-09-03T23:07:18;27.00;49.60
63371;DHT22;49504;48.336;14.472;2022-09-03T23:12:30;27.00;49.60
63371;DHT22;49504;48.336;14.472;2022-09-03T23:17:39;27.00;49.60
63371;DHT22;49504;48.336;14.472;2022-09-03T23:22:46;27.00;49.60
63371;DHT22;49504;48.336;14.472;2022-09-03T23:27:54;27.00;49.70
63371;DHT22;49504;48.336;14.472;2022-09-03T23:32:58;27.00;49.70
63371;DHT22;49504;48.336;14.472;2022-09-03T23:38:09;27.00;49.80
63371;DHT22;49504;48.336;14.472;2022-09-03T23:44:10;27.00;49.10
63371;DHT22;49504;48.336;14.472;2022-09-03T23:49:35;27.00;49.70
63371;DHT22;49504;48.336;14.472;2022-09-03T23:54:46;27.00;49.60
